Time;durP1;ratioP1;P1;durP2;ratioP2;P2;SDS_P1;SDS_P2;PMS_P1;PMS_P2;Temp;Humidity;BMP_temperature;BMP_pressure;BME280_temperature;BME280_humidity;BME280_pressure;Samples;Min_cycle;Max_cycle;Signal;HPM_P1;HPM_P2
2023/02/17 00:00:28;;;;;;;18.23;11.77;;;10.40;99.90;;;;;;5985584;23;20447;-70
2023/02/17 00:02:57;;;;;;;13.27;8.83;;;10.40;99.90;;;;;;5976452;23;20446;-71
2023/02/17 00:05:24;;;;;;;15.90;9.70;;;10.40;99.90;;;;;;5972283;23;20506;-70
2023/02/17 00:07:53;;;;;;;12.83;7.90;;;10.30;99.90;;;;;;5977168;23;20577;-70
2023/02/17 00:10:20;;;;;;;11.83;7.60;;;10.30;99.90;;;;;;5973294;23;20469;-71
2023/02/17 00:12:47;;;;;;;16.20;8.00;;;10.30;99.90;;;;;;5973919;23;20477;-70
2023/02/17 00:15:14;;;;;;;16.63;9.20;;;10.40;99.90;;;;;;5976803;23;20415;-68
2023/02/17 00:17:41;;;;;;;18.73;9.03;;;10.40;99.90;;;;;;5993397;23;20400;-72
2023/02/17 00:20:08;;;;;;;13.33;7.97;;;10.50;99.90;;;;;;5973583;23;20429;-70
2023/02/17 00:22:36;;;;;;;11.97;6.80;;;10.50;99.90;;;;;;5977567;23;20419;-70
2023/02/17 00:25:05;;;;;;;16.77;7.23;;;10.60;99.90;;;;;;5972127;23;20889;-68
2023/02/17 00:27:32;;;;;;;13.60;7.50;;;10.50;99.90;;;;;;5988105;23;20415;-68
2023/02/17 00:29:59;;;;;;;9.70;6.80;;;10.40;99.90;;;;;;5976463;23;20390;-71
2023/02/17 00:32:26;;;;;;;14.20;8.17;;;10.40;99.90;;;;;;5978578;23;20489;-70
2023/02/17 00:34:55;;;;;;;15.07;10.17;;;10.40;99.90;;;;;;5977547;23;20423;-71
2023/02/17 00:37:22;;;;;;;16.40;7.83;;;10.40;99.90;;;;;;5971580;23;20516;-72
2023/02/17 00:39:49;;;;;;;5.53;4.23;;;10.30;99.90;;;;;;5967467;23;21054;-71
2023/02/17 00:42:17;;;;;;;10.90;7.53;;;10.30;99.90;;;;;;5970613;23;20505;-71
2023/02/17 00:44:44;;;;;;;17.17;9.00;;;10.40;99.90;;;;;;5971003;23;20933;-68
2023/02/17 00:47:11;;;;;;;17.60;7.67;;;10.50;99.90;;;;;;5971827;23;20470;-71
2023/02/17 00:49:38;;;;;;;9.53;6.20;;;10.60;99.90;;;;;;5972201;23;20450;-71
2023/02/17 00:52:05;;;;;;;20.53;9.70;;;10.60;99.90;;;;;;5971980;23;20792;-71
2023/02/17 00:54:32;;;;;;;14.53;8.13;;;10.70;99.90;;;;;;5980360;23;20457;-69
2023/02/17 00:57:02;;;;;;;13.57;8.17;;;10.60;99.90;;;;;;5977283;23;20437;-71
2023/02/17 00:59:31;;;;;;;19.43;11.20;;;10.60;99.90;;;;;;5979666;23;20506;-71
2023/02/17 01:01:58;;;;;;;12.43;6.93;;;10.60;99.90;;;;;;5980874;23;21003;-70
2023/02/17 01:04:25;;;;;;;14.77;8.40;;;10.60;99.90;;;;;;5980360;23;20411;-71
2023/02/17 01:06:53;;;;;;;15.00;8.97;;;10.60;99.90;;;;;;5991393;23;20462;-70
2023/02/17 01:09:20;;;;;;;13.80;8.27;;;10.60;99.90;;;;;;5987930;23;20386;-70
2023/02/17 01:11:51;;;;;;;13.13;7.40;;;10.60;99.90;;;;;;5971150;23;20386;-71
2023/02/17 01:14:18;;;;;;;15.17;7.00;;;10.60;99.90;;;;;;5973696;23;20446;-68
2023/02/17 01:16:48;;;;;;;11.10;7.90;;;10.60;99.90;;;;;;5971122;23;20485;-71
2023/02/17 01:19:21;;;;;;;12.67;7.17;;;10.60;99.90;;;;;;5976228;23;20419;-71
2023/02/17 01:21:47;;;;;;;8.90;4.77;;;10.70;99.90;;;;;;5970515;23;20511;-72
2023/02/17 01:24:14;;;;;;;12.73;6.50;;;10.70;99.90;;;;;;5976893;23;20812;-71
2023/02/17 01:26:42;;;;;;;13.53;7.57;;;10.70;99.90;;;;;;5977517;23;20418;-72
2023/02/17 01:29:09;;;;;;;16.80;8.70;;;10.70;99.90;;;;;;5979635;23;20447;-71
2023/02/17 01:31:36;;;;;;;8.17;4.50;;;10.70;99.90;;;;;;5983654;23;20758;-71
2023/02/17 01:34:05;;;;;;;4.63;4.17;;;10.70;99.90;;;;;;5977349;23;20420;-71
2023/02/17 01:36:32;;;;;;;9.80;5.50;;;10.70;99.90;;;;;;5975709;23;20769;-70
2023/02/17 01:38:59;;;;;;;8.60;7.07;;;10.60;99.90;;;;;;5975687;23;20753;-72
2023/02/17 01:41:28;;;;;;;10.83;6.23;;;10.70;99.90;;;;;;5975360;23;20443;-70
2023/02/17 01:44:15;;;;;;;7.57;6.07;;;10.70;99.90;;;;;;5976128;23;20417;-72
2023/02/17 01:46:44;;;;;;;10.00;6.33;;;10.70;99.90;;;;;;5988570;23;20437;-69
2023/02/17 01:49:26;;;;;;;10.40;6.33;;;10.70;99.90;;;;;;5973557;23;20390;-70
2023/02/17 01:51:57;;;;;;;12.10;7.43;;;10.60;99.90;;;;;;5974979;23;20473;-72
2023/02/17 01:54:31;;;;;;;13.50;9.07;;;10.60;99.90;;;;;;5973249;23;20374;-73
2023/02/17 01:56:59;;;;;;;14.33;8.07;;;10.60;99.90;;;;;;5971891;23;20421;-73
2023/02/17 01:59:28;;;;;;;12.67;6.07;;;10.60;99.90;;;;;;5972040;23;20425;-71
2023/02/17 02:02:01;;;;;;;11.30;6.93;;;10.60;99.90;;;;;;5969505;23;20530;-72
2023/02/17 02:04:33;;;;;;;13.97;7.80;;;10.60;99.90;;;;;;5981630;23;20370;-70
2023/02/17 02:07:00;;;;;;;7.00;5.60;;;10.50;99.90;;;;;;5974495;23;20583;-72
2023/02/17 02:09:32;;;;;;;13.40;7.17;;;10.60;99.90;;;;;;5977898;23;21116;-72
2023/02/17 02:12:01;;;;;;;10.67;6.77;;;10.60;99.90;;;;;;5973322;23;20400;-72
2023/02/17 02:14:28;;;;;;;6.03;4.03;;;10.60;99.90;;;;;;5926478;24;20906;-73
2023/02/17 02:17:04;;;;;;;12.60;8.73;;;10.60;99.90;;;;;;5971225;23;21286;-70
2023/02/17 02:20:06;;;;;;;10.10;6.60;;;10.60;99.90;;;;;;5974369;23;20513;-72
2023/02/17 02:23:13;;;;;;;14.67;8.77;;;10.60;99.90;;;;;;5971768;24;20520;-72
2023/02/17 02:26:08;;;;;;;13.33;7.27;;;10.70;99.90;;;;;;5980423;23;20487;-70
2023/02/17 02:28:53;;;;;;;8.73;5.87;;;10.70;99.90;;;;;;5985472;23;20387;-69
2023/02/17 02:31:35;;;;;;;16.03;7.40;;;10.80;99.90;;;;;;5973867;23;20616;-72
2023/02/17 02:34:10;;;;;;;12.07;7.17;;;10.70;99.90;;;;;;5974227;23;20555;-70
2023/02/17 02:36:42;;;;;;;11.40;6.90;;;10.70;99.90;;;;;;5974422;23;20789;-72
2023/02/17 02:39:13;;;;;;;10.13;7.40;;;10.70;99.90;;;;;;5972503;23;20406;-70
2023/02/17 02:41:45;;;;;;;11.60;8.23;;;10.70;99.90;;;;;;5974693;23;20907;-72
2023/02/17 02:44:15;;;;;;;11.10;4.80;;;10.70;99.90;;;;;;5977317;23;20461;-72
2023/02/17 02:46:42;;;;;;;10.57;7.77;;;10.80;99.90;;;;;;5972249;23;20449;-72
2023/02/17 02:49:12;;;;;;;12.73;6.80;;;10.80;99.90;;;;;;5973254;23;20930;-74
2023/02/17 02:51:49;;;;;;;15.77;7.30;;;10.80;99.90;;;;;;5975723;23;20695;-72
2023/02/17 02:54:35;;;;;;;15.97;7.50;;;10.80;99.90;;;;;;5976621;23;20404;-72
2023/02/17 02:57:19;;;;;;;16.27;8.77;;;10.80;99.90;;;;;;5977740;23;20481;-73
2023/02/17 02:59:56;;;;;;;9.40;6.50;;;10.70;99.90;;;;;;5977898;23;20423;-70
2023/02/17 03:02:32;;;;;;;14.73;8.20;;;10.70;99.90;;;;;;5972984;23;20721;-70
2023/02/17 03:05:08;;;;;;;8.07;5.63;;;10.70;99.90;;;;;;5985157;23;20381;-70
2023/02/17 03:07:38;;;;;;;12.27;6.50;;;10.70;99.90;;;;;;5983056;23;20429;-71
2023/02/17 03:10:06;;;;;;;12.73;7.90;;;10.80;99.90;;;;;;5978677;23;20400;-72
2023/02/17 03:12:34;;;;;;;9.03;6.20;;;10.80;99.90;;;;;;5976181;23;20417;-72
2023/02/17 03:15:04;;;;;;;14.20;8.17;;;10.80;99.90;;;;;;5969439;23;20506;-72
2023/02/17 03:17:33;;;;;;;12.70;7.67;;;10.80;99.90;;;;;;5973205;23;20411;-71
2023/02/17 03:20:03;;;;;;;13.50;7.83;;;10.80;99.90;;;;;;5972398;23;20396;-71
2023/02/17 03:22:34;;;;;;;15.70;9.90;;;10.80;99.90;;;;;;5974403;23;20510;-68
2023/02/17 03:25:01;;;;;;;9.63;6.27;;;10.80;99.90;;;;;;5984836;23;20893;-70
2023/02/17 03:27:28;;;;;;;8.10;6.77;;;10.90;99.90;;;;;;5972512;23;20921;-71
2023/02/17 03:29:56;;;;;;;8.10;5.90;;;10.90;99.90;;;;;;5972466;23;20883;-71
2023/02/17 03:32:23;;;;;;;12.10;6.80;;;10.90;99.90;;;;;;5971297;23;20408;-68
2023/02/17 03:34:50;;;;;;;13.77;8.20;;;10.90;99.90;;;;;;5974941;23;20755;-70
2023/02/17 03:37:22;;;;;;;12.87;6.10;;;10.90;99.90;;;;;;5978019;23;20492;-72
2023/02/17 03:39:49;;;;;;;7.30;5.77;;;11.00;99.90;;;;;;5980765;23;20861;-71
2023/02/17 03:42:16;;;;;;;14.10;7.43;;;11.10;99.90;;;;;;5976634;23;20455;-71
2023/02/17 03:44:43;;;;;;;9.10;6.10;;;11.00;99.90;;;;;;5977655;23;20390;-70
2023/02/17 03:47:09;;;;;;;12.87;7.77;;;11.00;99.90;;;;;;5991005;23;20434;-71
2023/02/17 03:49:36;;;;;;;9.90;7.07;;;11.10;99.90;;;;;;5979290;23;20802;-71
2023/02/17 03:52:04;;;;;;;6.97;5.17;;;11.10;99.90;;;;;;5972830;23;20788;-73
2023/02/17 03:54:33;;;;;;;10.73;6.33;;;11.10;99.90;;;;;;5983922;23;20427;-71
2023/02/17 03:57:03;;;;;;;11.67;5.87;;;11.10;99.90;;;;;;5985908;23;20421;-71
2023/02/17 03:59:33;;;;;;;9.20;6.73;;;11.20;99.90;;;;;;5971474;23;20454;-71
2023/02/17 04:02:00;;;;;;;13.13;8.07;;;11.20;99.90;;;;;;5974122;23;20462;-71
2023/02/17 04:04:27;;;;;;;8.60;6.60;;;11.20;99.90;;;;;;5974363;23;20398;-71
2023/02/17 04:06:54;;;;;;;6.77;5.30;;;11.20;99.90;;;;;;5971303;23;20747;-69
2023/02/17 04:09:24;;;;;;;6.30;4.80;;;11.20;99.90;;;;;;5970928;23;20378;-69
2023/02/17 04:11:52;;;;;;;12.10;8.67;;;11.20;99.90;;;;;;5972554;23;20498;-72
2023/02/17 04:14:19;;;;;;;16.27;8.23;;;11.20;99.90;;;;;;5973625;23;20481;-71
2023/02/17 04:16:46;;;;;;;10.00;5.70;;;11.20;99.90;;;;;;5971180;23;20904;-71
2023/02/17 04:19:13;;;;;;;13.03;6.40;;;11.20;99.90;;;;;;5974069;23;20442;-71
2023/02/17 04:21:40;;;;;;;11.70;6.60;;;11.20;99.90;;;;;;5980278;23;20496;-72
2023/02/17 04:24:07;;;;;;;6.93;4.80;;;11.30;99.90;;;;;;5984643;23;20413;-71
2023/02/17 04:26:34;;;;;;;9.23;4.90;;;11.30;99.90;;;;;;5985730;23;21025;-71
2023/02/17 04:29:04;;;;;;;7.93;5.30;;;11.40;99.90;;;;;;5965519;23;20390;-71
2023/02/17 04:31:31;;;;;;;8.93;4.90;;;11.30;99.90;;;;;;5971334;23;20494;-71
2023/02/17 04:33:58;;;;;;;6.50;4.47;;;11.30;99.90;;;;;;5969269;23;20414;-69
2023/02/17 04:36:25;;;;;;;10.03;6.43;;;11.30;99.90;;;;;;5971736;23;20437;-70
2023/02/17 04:38:54;;;;;;;11.20;7.63;;;11.30;99.90;;;;;;5965561;23;20398;-68
2023/02/17 04:41:21;;;;;;;10.30;6.87;;;11.30;99.90;;;;;;5974226;23;20425;-71
2023/02/17 04:43:48;;;;;;;12.37;6.73;;;11.30;99.90;;;;;;5970797;23;20458;-71
2023/02/17 04:46:17;;;;;;;10.10;6.60;;;11.30;99.90;;;;;;5970773;23;20443;-68
2023/02/17 04:48:44;;;;;;;8.43;5.57;;;11.40;99.90;;;;;;5971467;23;21374;-70
2023/02/17 04:51:11;;;;;;;9.80;5.67;;;11.40;99.90;;;;;;5971440;23;20936;-73
2023/02/17 04:53:39;;;;;;;8.40;5.50;;;11.40;99.90;;;;;;5976299;23;20484;-71
2023/02/17 04:56:06;;;;;;;19.07;5.90;;;11.30;99.90;;;;;;5974166;23;20466;-71
2023/02/17 04:58:33;;;;;;;10.10;4.93;;;11.40;99.90;;;;;;5980553;23;20455;-72
2023/02/17 05:01:00;;;;;;;7.63;5.67;;;11.40;99.90;;;;;;5980323;23;20394;-72
2023/02/17 05:03:29;;;;;;;5.20;3.90;;;11.50;99.90;;;;;;5975267;23;20508;-70
2023/02/17 05:05:57;;;;;;;8.30;6.10;;;11.40;99.90;;;;;;5988912;23;20418;-70
2023/02/17 05:08:24;;;;;;;8.30;5.23;;;11.40;99.90;;;;;;5979748;23;20998;-72
2023/02/17 05:10:54;;;;;;;9.77;4.50;;;11.40;99.90;;;;;;5973408;23;20406;-67
2023/02/17 05:13:21;;;;;;;8.10;4.80;;;11.40;99.90;;;;;;5975293;23;20419;-68
2023/02/17 05:15:48;;;;;;;8.10;5.40;;;11.50;99.90;;;;;;5975648;23;20489;-71
2023/02/17 05:18:15;;;;;;;4.70;4.17;;;11.50;99.90;;;;;;5977278;23;20421;-72
2023/02/17 05:20:46;;;;;;;6.20;4.83;;;11.50;99.90;;;;;;5971489;23;20595;-71
2023/02/17 05:23:13;;;;;;;8.40;4.90;;;11.40;99.90;;;;;;5972466;23;20426;-72
2023/02/17 05:25:40;;;;;;;8.80;5.70;;;11.40;99.90;;;;;;5974257;23;20535;-72
2023/02/17 05:28:09;;;;;;;7.60;4.80;;;11.40;99.90;;;;;;5971227;23;20508;-71
2023/02/17 05:30:36;;;;;;;7.60;4.93;;;11.50;99.90;;;;;;5976434;23;20401;-71
2023/02/17 05:33:03;;;;;;;8.93;4.97;;;11.50;99.90;;;;;;5971917;23;20465;-72
2023/02/17 05:35:30;;;;;;;8.80;6.23;;;11.40;99.90;;;;;;5921566;24;20415;-72
2023/02/17 05:38:01;;;;;;;8.60;6.47;;;11.40;99.90;;;;;;5969169;23;20415;-70
2023/02/17 05:40:29;;;;;;;8.53;5.33;;;11.40;99.90;;;;;;5968241;23;20892;-68
2023/02/17 05:42:56;;;;;;;8.00;6.37;;;11.40;99.90;;;;;;5969880;23;20447;-70
2023/02/17 05:45:23;;;;;;;6.40;4.30;;;11.50;99.90;;;;;;5983355;23;20481;-68
2023/02/17 05:47:50;;;;;;;4.83;3.83;;;11.50;99.90;;;;;;5983414;23;20473;-71
2023/02/17 05:50:17;;;;;;;11.07;5.83;;;11.50;99.90;;;;;;5976715;23;20497;-71
2023/02/17 05:52:45;;;;;;;6.77;3.97;;;11.40;99.90;;;;;;5981893;23;20444;-71
2023/02/17 05:55:13;;;;;;;8.63;4.07;;;11.30;99.90;;;;;;5997562;23;20413;-70
2023/02/17 05:57:40;;;;;;;5.70;4.40;;;11.40;99.90;;;;;;5983785;23;20758;-71
2023/02/17 06:00:09;;;;;;;5.43;4.40;;;11.40;99.90;;;;;;5981051;23;20936;-70
2023/02/17 06:02:36;;;;;;;8.63;5.23;;;11.40;99.90;;;;;;5981622;23;20447;-71
2023/02/17 06:05:07;;;;;;;9.50;6.33;;;11.40;99.90;;;;;;5978611;23;20438;-68
2023/02/17 06:07:34;;;;;;;13.70;6.93;;;11.40;99.90;;;;;;5979742;23;20476;-71
2023/02/17 06:10:01;;;;;;;11.63;6.07;;;11.40;99.90;;;;;;5980626;23;20442;-71
2023/02/17 06:12:31;;;;;;;7.57;6.80;;;11.40;99.90;;;;;;5982922;23;20739;-71
2023/02/17 06:14:58;;;;;;;15.03;7.17;;;11.30;99.90;;;;;;5990643;23;20442;-71
2023/02/17 06:17:25;;;;;;;15.10;8.10;;;11.30;99.90;;;;;;5981393;23;20506;-71
2023/02/17 06:19:52;;;;;;;8.63;6.37;;;11.40;99.90;;;;;;5981644;23;20461;-71
2023/02/17 06:22:19;;;;;;;4.17;2.93;;;11.40;99.90;;;;;;5980549;23;20836;-71
2023/02/17 06:24:46;;;;;;;11.20;5.83;;;11.30;99.90;;;;;;5983571;23;20390;-71
2023/02/17 06:27:13;;;;;;;7.10;4.30;;;11.40;99.90;;;;;;5991274;23;20542;-71
2023/02/17 06:29:41;;;;;;;6.53;4.50;;;11.40;99.90;;;;;;5982025;23;20390;-71
2023/02/17 06:32:08;;;;;;;12.90;6.70;;;11.30;99.90;;;;;;5982240;23;20490;-71
2023/02/17 06:34:35;;;;;;;10.10;5.13;;;11.40;99.90;;;;;;5983051;23;20415;-71
2023/02/17 06:37:04;;;;;;;7.50;4.80;;;11.40;99.90;;;;;;5985847;23;20425;-71
2023/02/17 06:39:32;;;;;;;7.50;4.77;;;11.40;99.90;;;;;;5979766;23;20423;-72
2023/02/17 06:42:00;;;;;;;12.00;6.20;;;11.30;99.90;;;;;;5979740;23;20445;-70
2023/02/17 06:44:28;;;;;;;10.20;5.30;;;11.40;99.90;;;;;;5907342;24;20414;-71
2023/02/17 06:46:56;;;;;;;9.17;6.03;;;11.40;99.90;;;;;;5979023;23;20518;-73
2023/02/17 06:49:23;;;;;;;9.63;6.63;;;11.30;99.90;;;;;;5982729;23;20401;-71
2023/02/17 06:51:50;;;;;;;7.70;5.00;;;11.40;99.90;;;;;;5982813;23;20806;-72
2023/02/17 06:54:17;;;;;;;10.10;5.80;;;11.40;99.90;;;;;;5980451;23;20477;-73
2023/02/17 06:56:44;;;;;;;6.10;2.37;;;11.50;99.90;;;;;;5980936;23;20741;-74
2023/02/17 06:59:11;;;;;;;8.10;5.00;;;11.50;99.90;;;;;;5980831;23;20422;-71
2023/02/17 07:01:39;;;;;;;5.23;3.80;;;11.40;99.90;;;;;;5980800;23;20527;-71
2023/02/17 07:04:07;;;;;;;5.43;4.67;;;11.40;99.90;;;;;;5982149;23;20394;-72
2023/02/17 07:06:34;;;;;;;6.13;4.90;;;11.40;99.90;;;;;;5992062;23;20427;-72
2023/02/17 07:09:01;;;;;;;6.30;4.00;;;11.30;99.90;;;;;;5982220;23;20586;-71
2023/02/17 07:11:31;;;;;;;7.43;5.63;;;11.20;99.90;;;;;;5989548;23;20386;-73
2023/02/17 07:13:59;;;;;;;8.27;4.33;;;11.10;99.90;;;;;;5979432;23;20417;-71
2023/02/17 07:16:29;;;;;;;7.23;3.83;;;11.00;99.90;;;;;;5976983;23;20414;-70
2023/02/17 07:18:56;;;;;;;8.87;4.83;;;11.00;99.90;;;;;;5980391;23;20386;-72
2023/02/17 07:21:24;;;;;;;9.80;5.97;;;11.00;99.90;;;;;;5978414;23;20390;-72
2023/02/17 07:23:51;;;;;;;7.20;4.50;;;11.00;99.90;;;;;;5976729;23;20949;-71
2023/02/17 07:26:18;;;;;;;11.27;5.10;;;11.00;99.90;;;;;;5979785;23;20433;-73
2023/02/17 07:28:45;;;;;;;7.60;5.37;;;11.10;99.90;;;;;;5980404;23;20392;-72
2023/02/17 07:31:14;;;;;;;8.97;4.47;;;11.00;99.90;;;;;;5978129;23;20427;-72
2023/02/17 07:33:41;;;;;;;8.50;4.73;;;11.00;99.90;;;;;;5980618;23;20800;-72
2023/02/17 07:36:10;;;;;;;7.60;3.43;;;11.10;99.90;;;;;;5979991;23;20425;-72
2023/02/17 07:38:40;;;;;;;7.20;4.73;;;11.00;99.90;;;;;;5978867;23;20427;-70
2023/02/17 07:41:08;;;;;;;7.27;5.50;;;11.00;99.90;;;;;;5986122;23;20559;-71
2023/02/17 07:43:35;;;;;;;14.23;6.13;;;11.00;99.90;;;;;;5996319;23;20444;-69
2023/02/17 07:46:03;;;;;;;7.10;4.87;;;11.00;99.90;;;;;;5998971;23;20933;-71
2023/02/17 07:48:30;;;;;;;9.80;6.23;;;11.00;99.90;;;;;;5980999;23;20418;-72
2023/02/17 07:50:57;;;;;;;9.80;5.57;;;11.00;99.90;;;;;;5975295;23;20506;-71
2023/02/17 07:53:24;;;;;;;6.23;4.23;;;11.10;99.90;;;;;;5980028;23;20419;-72
2023/02/17 07:55:54;;;;;;;4.07;3.13;;;11.20;99.90;;;;;;5981912;23;20436;-71
2023/02/17 07:58:21;;;;;;;7.20;4.10;;;11.20;99.90;;;;;;5976974;23;20474;-73
2023/02/17 08:00:47;;;;;;;12.63;5.73;;;11.20;99.90;;;;;;5978051;23;20403;-73
2023/02/17 08:03:14;;;;;;;9.77;6.53;;;11.20;99.90;;;;;;5979641;23;20530;-72
2023/02/17 08:05:41;;;;;;;7.57;4.70;;;11.30;99.90;;;;;;5979136;23;20431;-71
2023/02/17 08:13:38;;;;;;;9.93;6.30;;;11.30;99.90;;;;;;5978650;24;20452;-73
2023/02/17 08:16:06;;;;;;;10.10;5.47;;;11.40;99.90;;;;;;5975713;23;20436;-73
2023/02/17 08:18:33;;;;;;;9.97;6.00;;;11.50;99.90;;;;;;5979058;23;20494;-72
2023/02/17 08:21:00;;;;;;;11.50;5.30;;;11.60;99.90;;;;;;5978036;23;20458;-71
2023/02/17 08:23:29;;;;;;;14.97;7.33;;;11.50;99.90;;;;;;5981354;23;20471;-70
2023/02/17 08:26:00;;;;;;;13.27;7.80;;;11.50;99.90;;;;;;5992679;23;20402;-71
2023/02/17 08:28:27;;;;;;;13.20;6.77;;;11.50;99.90;;;;;;5979933;23;20462;-72
2023/02/17 08:30:54;;;;;;;12.63;7.50;;;11.50;99.90;;;;;;5974449;23;21067;-71
2023/02/17 08:33:22;;;;;;;11.17;6.83;;;11.40;99.90;;;;;;5978601;23;20843;-72
2023/02/17 08:35:49;;;;;;;10.77;4.87;;;11.50;99.90;;;;;;5977259;23;20410;-70
2023/02/17 08:38:16;;;;;;;8.23;4.53;;;11.50;99.90;;;;;;5975727;23;20489;-72
2023/02/17 08:40:43;;;;;;;6.40;4.00;;;11.60;99.90;;;;;;5977631;23;20493;-72
2023/02/17 08:43:11;;;;;;;9.10;5.10;;;11.70;99.90;;;;;;5977756;23;20418;-72
2023/02/17 08:45:38;;;;;;;6.40;4.97;;;11.70;99.90;;;;;;5978835;23;20484;-71
2023/02/17 08:48:06;;;;;;;6.93;4.57;;;11.70;99.90;;;;;;5976675;23;20446;-72
2023/02/17 08:50:33;;;;;;;14.50;7.40;;;11.70;99.90;;;;;;5981705;23;20370;-72
2023/02/17 08:53:00;;;;;;;13.07;7.50;;;11.70;99.90;;;;;;5977769;23;20411;-70
2023/02/17 08:55:27;;;;;;;10.27;6.77;;;11.80;99.90;;;;;;5980842;23;20778;-70
2023/02/17 08:57:54;;;;;;;13.60;8.30;;;11.80;99.90;;;;;;5982981;23;20471;-70
2023/02/17 09:00:23;;;;;;;7.07;3.23;;;11.80;99.90;;;;;;5981041;23;20477;-71
2023/02/17 09:02:50;;;;;;;9.00;5.03;;;11.80;99.90;;;;;;5987384;23;20458;-70
2023/02/17 09:05:17;;;;;;;6.97;5.17;;;11.80;99.90;;;;;;5999999;23;20419;-70
2023/02/17 09:07:44;;;;;;;6.60;4.63;;;11.90;99.90;;;;;;5983949;23;20416;-70
2023/02/17 09:10:13;;;;;;;5.80;4.20;;;11.90;99.90;;;;;;5981865;23;20490;-71
2023/02/17 09:12:40;;;;;;;5.07;4.17;;;12.00;99.90;;;;;;5985057;23;20431;-71
2023/02/17 09:15:09;;;;;;;8.67;5.67;;;12.00;99.90;;;;;;5978093;23;20390;-71
2023/02/17 09:17:40;;;;;;;5.27;4.60;;;12.10;99.90;;;;;;5978472;23;20419;-70
2023/02/17 09:20:08;;;;;;;8.47;5.50;;;12.10;99.90;;;;;;5979039;23;20396;-72
2023/02/17 09:22:35;;;;;;;7.20;5.27;;;12.10;99.90;;;;;;5980173;23;20495;-72
2023/02/17 09:25:02;;;;;;;3.97;2.83;;;12.10;99.90;;;;;;5979402;23;20435;-69
2023/02/17 09:27:31;;;;;;;6.40;4.70;;;12.10;99.90;;;;;;5977891;23;20965;-72
2023/02/17 09:29:58;;;;;;;10.27;4.60;;;12.10;99.90;;;;;;5974565;23;20393;-71
2023/02/17 09:32:25;;;;;;;7.13;4.50;;;12.20;99.90;;;;;;5979790;23;20461;-70
2023/02/17 09:34:54;;;;;;;10.30;6.13;;;12.30;99.90;;;;;;5979244;23;20502;-73
2023/02/17 09:37:22;;;;;;;6.87;3.07;;;12.30;99.90;;;;;;5980047;23;20802;-72
2023/02/17 09:39:49;;;;;;;3.57;3.20;;;12.40;99.90;;;;;;5977833;23;20427;-70
2023/02/17 09:42:20;;;;;;;9.37;4.70;;;12.40;99.90;;;;;;5976753;23;20426;-72
2023/02/17 09:44:51;;;;;;;6.03;4.13;;;12.50;99.90;;;;;;5987678;23;20490;-70
2023/02/17 09:47:22;;;;;;;10.70;5.20;;;12.50;99.90;;;;;;5982684;23;20451;-72
2023/02/17 09:50:04;;;;;;;7.10;4.37;;;12.50;99.90;;;;;;5979895;23;20428;-73
2023/02/17 09:52:40;;;;;;;9.70;5.73;;;12.50;99.90;;;;;;5977527;23;20439;-72
2023/02/17 09:55:13;;;;;;;11.10;5.10;;;12.70;99.90;;;;;;5976218;24;20944;-71
2023/02/17 09:57:49;;;;;;;7.17;4.50;;;12.70;99.90;;;;;;5979746;23;20396;-71
2023/02/17 10:00:21;;;;;;;6.10;4.27;;;12.70;99.90;;;;;;5982480;24;20462;-70
2023/02/17 10:02:54;;;;;;;8.40;5.23;;;12.80;99.90;;;;;;5977038;23;20404;-70
2023/02/17 10:05:33;;;;;;;5.30;3.20;;;12.80;99.90;;;;;;5979023;23;20472;-72
2023/02/17 10:08:06;;;;;;;10.63;6.07;;;12.80;99.90;;;;;;5975808;24;20420;-71
2023/02/17 10:10:42;;;;;;;4.07;2.47;;;12.80;99.90;;;;;;5979457;23;20419;-72
2023/02/17 10:13:10;;;;;;;7.10;3.63;;;12.80;99.90;;;;;;5927008;24;21040;-73
2023/02/17 10:15:44;;;;;;;4.67;3.33;;;12.80;99.90;;;;;;5979192;23;20459;-72
2023/02/17 10:18:18;;;;;;;6.80;5.00;;;12.90;99.90;;;;;;5979034;23;20399;-72
2023/02/17 10:20:53;;;;;;;6.00;3.60;;;13.00;99.90;;;;;;5982461;23;20400;-73
2023/02/17 10:23:22;;;;;;;5.57;3.90;;;13.00;99.90;;;;;;5992967;23;20431;-72
2023/02/17 10:26:06;;;;;;;7.93;5.00;;;13.00;99.90;;;;;;5987278;23;20980;-72
2023/02/17 10:28:44;;;;;;;7.33;5.37;;;13.00;99.90;;;;;;5979123;23;20384;-72
2023/02/17 10:31:15;;;;;;;6.60;5.17;;;13.10;99.90;;;;;;5984516;23;20542;-72
2023/02/17 10:33:54;;;;;;;10.43;4.70;;;13.10;99.90;;;;;;5982860;23;20437;-73
2023/02/17 10:36:29;;;;;;;6.10;4.13;;;13.10;99.90;;;;;;5978203;24;20802;-73
2023/02/17 10:39:03;;;;;;;5.90;3.93;;;13.10;99.90;;;;;;5981742;23;20411;-72
2023/02/17 10:41:35;;;;;;;7.43;4.50;;;13.10;99.90;;;;;;5979684;23;20772;-72
2023/02/17 10:44:08;;;;;;;4.00;2.80;;;13.10;99.90;;;;;;5979067;23;20566;-72
2023/02/17 10:46:35;;;;;;;3.63;2.63;;;13.10;99.90;;;;;;5981225;23;20458;-72
2023/02/17 10:49:02;;;;;;;6.30;4.83;;;13.20;99.90;;;;;;5980385;23;20454;-72
2023/02/17 10:51:31;;;;;;;5.17;4.63;;;13.20;99.90;;;;;;5978514;23;20390;-73
2023/02/17 10:54:02;;;;;;;10.13;3.60;;;13.40;99.90;;;;;;5980517;23;20379;-72
2023/02/17 10:56:38;;;;;;;5.93;4.47;;;13.40;99.90;;;;;;5988399;23;20770;-70
2023/02/17 10:59:12;;;;;;;3.27;2.40;;;13.40;99.90;;;;;;5980141;23;20788;-70
2023/02/17 11:01:40;;;;;;;5.43;3.00;;;13.40;99.90;;;;;;5982296;23;20400;-69
2023/02/17 11:04:09;;;;;;;6.63;4.43;;;13.40;99.90;;;;;;5997296;23;20462;-70
2023/02/17 11:06:43;;;;;;;5.90;3.87;;;13.50;99.90;;;;;;5982483;23;20443;-70
2023/02/17 11:09:19;;;;;;;4.23;2.77;;;13.50;99.90;;;;;;5977688;23;20399;-71
2023/02/17 11:11:57;;;;;;;6.00;4.10;;;13.60;99.90;;;;;;5978593;23;20386;-71
2023/02/17 11:14:28;;;;;;;6.30;4.13;;;13.60;99.90;;;;;;5979335;23;20400;-73
2023/02/17 11:17:01;;;;;;;14.53;3.67;;;13.60;99.90;;;;;;5979385;23;20468;-71
2023/02/17 11:19:32;;;;;;;4.93;3.00;;;13.60;99.90;;;;;;5979911;23;20849;-71
2023/02/17 11:22:03;;;;;;;6.90;3.67;;;13.50;99.90;;;;;;5981173;23;20406;-72
2023/02/17 11:24:31;;;;;;;9.00;3.57;;;13.80;99.90;;;;;;5980376;23;20958;-71
2023/02/17 11:27:01;;;;;;;3.67;2.80;;;14.00;99.90;;;;;;5974313;23;20427;-70
2023/02/17 11:29:29;;;;;;;4.60;3.30;;;14.10;99.90;;;;;;5979163;23;20435;-71
2023/02/17 11:31:58;;;;;;;3.33;2.90;;;14.20;99.90;;;;;;5979546;23;20450;-71
2023/02/17 11:34:27;;;;;;;3.07;2.23;;;14.20;99.90;;;;;;5982555;23;20412;-72
2023/02/17 11:37:01;;;;;;;3.30;2.87;;;14.30;99.90;;;;;;5981813;23;20470;-73
2023/02/17 11:39:29;;;;;;;2.67;2.47;;;14.20;99.90;;;;;;5979760;23;20407;-72
2023/02/17 11:41:56;;;;;;;2.83;2.33;;;14.10;99.90;;;;;;5987515;23;20423;-72
2023/02/17 11:44:24;;;;;;;6.27;2.67;;;14.10;99.90;;;;;;5980984;23;20454;-72
2023/02/17 11:47:01;;;;;;;4.77;2.37;;;14.00;99.90;;;;;;5981591;23;20515;-73
2023/02/17 11:49:59;;;;;;;6.13;3.80;;;14.00;99.90;;;;;;5986314;23;20802;-69
2023/02/17 11:52:52;;;;;;;2.70;2.10;;;14.00;99.90;;;;;;5960158;23;20454;-72
2023/02/17 11:55:23;;;;;;;4.17;2.50;;;14.10;99.90;;;;;;5986639;23;20431;-73
2023/02/17 11:58:02;;;;;;;4.57;3.30;;;14.10;99.90;;;;;;5978606;23;20429;-73
2023/02/17 12:00:37;;;;;;;4.50;3.67;;;14.20;99.90;;;;;;5977951;23;20494;-71
2023/02/17 12:03:41;;;;;;;3.90;2.40;;;14.20;99.90;;;;;;5979140;24;20406;-72
2023/02/17 12:06:14;;;;;;;5.80;3.07;;;14.20;99.90;;;;;;5979334;23;20424;-71
2023/02/17 12:09:02;;;;;;;3.97;2.83;;;14.20;99.90;;;;;;5977328;23;20439;-71
2023/02/17 12:11:36;;;;;;;10.57;3.00;;;14.10;99.90;;;;;;5978235;23;20390;-72
2023/02/17 12:14:33;;;;;;;4.40;2.33;;;14.10;99.90;;;;;;5987542;23;20395;-71
2023/02/17 12:17:11;;;;;;;4.17;2.70;;;14.10;99.90;;;;;;5983553;23;20463;-71
2023/02/17 12:19:45;;;;;;;6.27;2.57;;;14.00;99.90;;;;;;5979312;23;20740;-73
2023/02/17 12:22:18;;;;;;;3.47;2.00;;;14.00;99.90;;;;;;5979875;23;20455;-72
2023/02/17 12:25:02;;;;;;;4.50;3.40;;;14.20;99.90;;;;;;5979021;23;20478;-72
2023/02/17 12:27:47;;;;;;;3.10;2.10;;;14.20;99.90;;;;;;5980380;23;20479;-71
2023/02/17 12:30:42;;;;;;;4.57;2.20;;;14.10;99.90;;;;;;5978381;23;20412;-71
2023/02/17 12:33:28;;;;;;;7.50;3.30;;;14.20;99.90;;;;;;5975973;23;20440;-71
2023/02/17 12:35:57;;;;;;;2.20;1.57;;;14.10;99.90;;;;;;5977468;23;20427;-71
2023/02/17 12:38:27;;;;;;;6.07;3.40;;;14.10;99.90;;;;;;5981621;23;20412;-72
2023/02/17 12:41:02;;;;;;;3.23;2.00;;;14.10;99.90;;;;;;5980270;23;20766;-70
2023/02/17 12:43:37;;;;;;;7.23;1.73;;;14.00;99.90;;;;;;5981148;23;20426;-71
2023/02/17 12:46:09;;;;;;;3.87;3.40;;;14.10;99.90;;;;;;5980186;23;20514;-70
2023/02/17 12:48:41;;;;;;;4.20;2.30;;;14.00;99.90;;;;;;5979782;23;20897;-71
2023/02/17 12:51:15;;;;;;;2.90;2.00;;;14.10;99.90;;;;;;5991288;23;20415;-71
2023/02/17 12:53:47;;;;;;;4.80;3.63;;;14.10;99.90;;;;;;5980916;23;20442;-70
2023/02/17 12:56:39;;;;;;;5.97;2.57;;;14.10;99.90;;;;;;5976423;23;20462;-71
2023/02/17 12:59:13;;;;;;;3.80;2.87;;;14.00;99.90;;;;;;5980962;23;20474;-71
2023/02/17 13:01:52;;;;;;;3.50;2.47;;;14.00;99.90;;;;;;5991790;23;20420;-71
2023/02/17 13:04:23;;;;;;;5.83;4.10;;;14.00;99.90;;;;;;5980974;23;20458;-71